sensor_id;sensor_type;location;lat;lon;timestamp;P1;durP1;ratioP1;P2;durP2;ratioP2
5129;SDS011;2583;50.946;6.954;2022-07-11T00:01:10;6.63;;;2.40;;
5129;SDS011;2583;50.946;6.954;2022-07-11T00:03:37;3.90;;;2.17;;
5129;SDS011;2583;50.946;6.954;2022-07-11T00:06:05;4.80;;;2.30;;
5129;SDS011;2583;50.946;6.954;2022-07-11T00:08:32;3.87;;;2.07;;
5129;SDS011;2583;50.946;6.954;2022-07-11T00:10:59;3.83;;;2.60;;
5129;SDS011;2583;50.946;6.954;2022-07-11T00:13:25;2.37;;;1.80;;
5129;SDS011;2583;50.946;6.954;2022-07-11T00:15:52;3.70;;;2.10;;
5129;SDS011;2583;50.946;6.954;2022-07-11T00:18:19;2.93;;;2.07;;
5129;SDS011;2583;50.946;6.954;2022-07-11T00:20:46;3.40;;;2.30;;
5129;SDS011;2583;50.946;6.954;2022-07-11T00:23:13;2.37;;;2.10;;
5129;SDS011;2583;50.946;6.954;2022-07-11T00:25:40;2.80;;;2.30;;
5129;SDS011;2583;50.946;6.954;2022-07-11T00:28:07;3.00;;;1.90;;
5129;SDS011;2583;50.946;6.954;2022-07-11T00:30:34;2.30;;;1.73;;
5129;SDS011;2583;50.946;6.954;2022-07-11T00:33:00;5.27;;;1.93;;
5129;SDS011;2583;50.946;6.954;2022-07-11T00:35:27;5.20;;;1.97;;
5129;SDS011;2583;50.946;6.954;2022-07-11T00:37:54;4.90;;;2.53;;
5129;SDS011;2583;50.946;6.954;2022-07-11T00:40:21;4.57;;;2.40;;
5129;SDS011;2583;50.946;6.954;2022-07-11T00:42:47;3.23;;;2.00;;
5129;SDS011;2583;50.946;6.954;2022-07-11T00:45:14;3.13;;;2.20;;
5129;SDS011;2583;50.946;6.954;2022-07-11T00:47:41;2.80;;;2.00;;
5129;SDS011;2583;50.946;6.954;2022-07-11T00:50:08;5.77;;;2.20;;
5129;SDS011;2583;50.946;6.954;2022-07-11T00:52:36;5.67;;;2.47;;
5129;SDS011;2583;50.946;6.954;2022-07-11T00:55:03;2.83;;;2.10;;
5129;SDS011;2583;50.946;6.954;2022-07-11T00:57:32;2.43;;;2.13;;
5129;SDS011;2583;50.946;6.954;2022-07-11T01:00:00;5.13;;;1.90;;
5129;SDS011;2583;50.946;6.954;2022-07-11T01:02:27;3.87;;;2.47;;
5129;SDS011;2583;50.946;6.954;2022-07-11T01:04:54;5.73;;;2.17;;
5129;SDS011;2583;50.946;6.954;2022-07-11T01:07:22;3.10;;;2.00;;
5129;SDS011;2583;50.946;6.954;2022-07-11T01:09:49;2.90;;;1.80;;
5129;SDS011;2583;50.946;6.954;2022-07-11T01:12:16;3.00;;;2.60;;
5129;SDS011;2583;50.946;6.954;2022-07-11T01:14:53;2.33;;;2.13;;
5129;SDS011;2583;50.946;6.954;2022-07-11T01:17:21;3.20;;;2.23;;
5129;SDS011;2583;50.946;6.954;2022-07-11T01:19:47;3.33;;;2.40;;
5129;SDS011;2583;50.946;6.954;2022-07-11T01:22:14;11.80;;;2.80;;
5129;SDS011;2583;50.946;6.954;2022-07-11T01:24:43;3.03;;;2.40;;
5129;SDS011;2583;50.946;6.954;2022-07-11T01:27:13;4.57;;;2.17;;
5129;SDS011;2583;50.946;6.954;2022-07-11T01:29:41;3.20;;;2.70;;
5129;SDS011;2583;50.946;6.954;2022-07-11T01:32:08;3.10;;;2.37;;
5129;SDS011;2583;50.946;6.954;2022-07-11T01:34:35;4.17;;;2.87;;
5129;SDS011;2583;50.946;6.954;2022-07-11T01:37:01;5.87;;;2.53;;
5129;SDS011;2583;50.946;6.954;2022-07-11T01:39:28;3.50;;;3.20;;
5129;SDS011;2583;50.946;6.954;2022-07-11T01:41:56;4.83;;;2.53;;
5129;SDS011;2583;50.946;6.954;2022-07-11T01:44:24;3.90;;;2.87;;
5129;SDS011;2583;50.946;6.954;2022-07-11T01:46:51;2.90;;;2.60;;
5129;SDS011;2583;50.946;6.954;2022-07-11T01:49:18;5.10;;;3.40;;
5129;SDS011;2583;50.946;6.954;2022-07-11T01:51:45;4.17;;;2.60;;
5129;SDS011;2583;50.946;6.954;2022-07-11T01:54:12;2.90;;;2.60;;
5129;SDS011;2583;50.946;6.954;2022-07-11T01:56:39;2.87;;;2.47;;
5129;SDS011;2583;50.946;6.954;2022-07-11T01:59:06;2.30;;;2.10;;
5129;SDS011;2583;50.946;6.954;2022-07-11T02:01:33;3.03;;;2.30;;
5129;SDS011;2583;50.946;6.954;2022-07-11T02:04:00;3.97;;;2.50;;
5129;SDS011;2583;50.946;6.954;2022-07-11T02:06:27;16.30;;;3.67;;
5129;SDS011;2583;50.946;6.954;2022-07-11T02:08:53;3.97;;;2.90;;
5129;SDS011;2583;50.946;6.954;2022-07-11T02:11:20;4.33;;;2.90;;
5129;SDS011;2583;50.946;6.954;2022-07-11T02:13:47;4.57;;;2.90;;
5129;SDS011;2583;50.946;6.954;2022-07-11T02:16:14;2.90;;;2.70;;
5129;SDS011;2583;50.946;6.954;2022-07-11T02:18:41;3.23;;;2.90;;
5129;SDS011;2583;50.946;6.954;2022-07-11T02:21:08;4.43;;;3.10;;
5129;SDS011;2583;50.946;6.954;2022-07-11T02:23:35;6.40;;;3.60;;
5129;SDS011;2583;50.946;6.954;2022-07-11T02:26:02;6.50;;;3.20;;
5129;SDS011;2583;50.946;6.954;2022-07-11T02:28:28;4.13;;;3.10;;
5129;SDS011;2583;50.946;6.954;2022-07-11T02:30:55;5.00;;;3.20;;
5129;SDS011;2583;50.946;6.954;2022-07-11T02:33:22;6.40;;;4.13;;
5129;SDS011;2583;50.946;6.954;2022-07-11T02:35:49;3.77;;;3.33;;
5129;SDS011;2583;50.946;6.954;2022-07-11T02:38:16;5.67;;;3.90;;
5129;SDS011;2583;50.946;6.954;2022-07-11T02:40:43;3.67;;;3.30;;
5129;SDS011;2583;50.946;6.954;2022-07-11T02:43:13;8.20;;;3.60;;
5129;SDS011;2583;50.946;6.954;2022-07-11T02:45:41;4.03;;;3.73;;
5129;SDS011;2583;50.946;6.954;2022-07-11T02:48:08;5.50;;;3.60;;
5129;SDS011;2583;50.946;6.954;2022-07-11T02:50:34;4.60;;;4.20;;
5129;SDS011;2583;50.946;6.954;2022-07-11T02:53:01;8.80;;;4.07;;
5129;SDS011;2583;50.946;6.954;2022-07-11T02:55:28;7.20;;;3.50;;
5129;SDS011;2583;50.946;6.954;2022-07-11T02:57:55;4.87;;;3.47;;
5129;SDS011;2583;50.946;6.954;2022-07-11T03:00:22;4.33;;;3.87;;
5129;SDS011;2583;50.946;6.954;2022-07-11T03:02:49;5.40;;;3.43;;
5129;SDS011;2583;50.946;6.954;2022-07-11T03:05:16;6.23;;;3.67;;
5129;SDS011;2583;50.946;6.954;2022-07-11T03:07:43;6.70;;;4.20;;
5129;SDS011;2583;50.946;6.954;2022-07-11T03:10:10;4.50;;;3.90;;
5129;SDS011;2583;50.946;6.954;2022-07-11T03:12:37;4.57;;;3.80;;
5129;SDS011;2583;50.946;6.954;2022-07-11T03:15:04;5.33;;;4.50;;
5129;SDS011;2583;50.946;6.954;2022-07-11T03:17:32;5.30;;;4.17;;
5129;SDS011;2583;50.946;6.954;2022-07-11T03:19:59;6.17;;;4.20;;
5129;SDS011;2583;50.946;6.954;2022-07-11T03:22:27;6.13;;;4.40;;
5129;SDS011;2583;50.946;6.954;2022-07-11T03:24:54;4.27;;;3.97;;
5129;SDS011;2583;50.946;6.954;2022-07-11T03:27:20;5.20;;;4.00;;
5129;SDS011;2583;50.946;6.954;2022-07-11T03:29:47;5.23;;;4.17;;
5129;SDS011;2583;50.946;6.954;2022-07-11T03:32:14;5.20;;;3.77;;
5129;SDS011;2583;50.946;6.954;2022-07-11T03:34:41;5.00;;;4.60;;
5129;SDS011;2583;50.946;6.954;2022-07-11T03:37:28;9.13;;;4.63;;
5129;SDS011;2583;50.946;6.954;2022-07-11T03:39:55;8.13;;;4.20;;
5129;SDS011;2583;50.946;6.954;2022-07-11T03:42:28;5.13;;;4.70;;
5129;SDS011;2583;50.946;6.954;2022-07-11T03:44:54;11.03;;;4.67;;
5129;SDS011;2583;50.946;6.954;2022-07-11T03:47:21;4.90;;;4.50;;
5129;SDS011;2583;50.946;6.954;2022-07-11T03:49:48;7.40;;;4.87;;
5129;SDS011;2583;50.946;6.954;2022-07-11T03:52:15;5.17;;;4.70;;
5129;SDS011;2583;50.946;6.954;2022-07-11T03:54:41;6.17;;;4.63;;
5129;SDS011;2583;50.946;6.954;2022-07-11T03:57:09;4.73;;;4.43;;
5129;SDS011;2583;50.946;6.954;2022-07-11T03:59:36;6.20;;;4.70;;
5129;SDS011;2583;50.946;6.954;2022-07-11T04:02:02;7.23;;;5.57;;
5129;SDS011;2583;50.946;6.954;2022-07-11T04:04:30;9.43;;;5.60;;
5129;SDS011;2583;50.946;6.954;2022-07-11T04:06:57;5.00;;;4.50;;
5129;SDS011;2583;50.946;6.954;2022-07-11T04:09:24;5.40;;;5.00;;
5129;SDS011;2583;50.946;6.954;2022-07-11T04:11:51;5.60;;;5.03;;
5129;SDS011;2583;50.946;6.954;2022-07-11T04:14:18;9.67;;;5.67;;
5129;SDS011;2583;50.946;6.954;2022-07-11T04:16:45;5.90;;;5.40;;
5129;SDS011;2583;50.946;6.954;2022-07-11T04:19:12;6.10;;;5.60;;
5129;SDS011;2583;50.946;6.954;2022-07-11T04:21:38;5.67;;;5.20;;
5129;SDS011;2583;50.946;6.954;2022-07-11T04:24:05;7.00;;;5.60;;
5129;SDS011;2583;50.946;6.954;2022-07-11T04:26:32;5.93;;;5.47;;
5129;SDS011;2583;50.946;6.954;2022-07-11T04:28:59;8.60;;;4.80;;
5129;SDS011;2583;50.946;6.954;2022-07-11T04:31:26;6.93;;;5.07;;
5129;SDS011;2583;50.946;6.954;2022-07-11T04:33:53;5.93;;;5.23;;
5129;SDS011;2583;50.946;6.954;2022-07-11T04:36:19;7.73;;;5.40;;
5129;SDS011;2583;50.946;6.954;2022-07-11T04:38:46;5.90;;;4.87;;
5129;SDS011;2583;50.946;6.954;2022-07-11T04:41:13;5.53;;;5.13;;
5129;SDS011;2583;50.946;6.954;2022-07-11T04:43:40;7.90;;;5.37;;
5129;SDS011;2583;50.946;6.954;2022-07-11T04:46:07;6.90;;;5.07;;
5129;SDS011;2583;50.946;6.954;2022-07-11T04:48:35;6.03;;;5.10;;
5129;SDS011;2583;50.946;6.954;2022-07-11T04:51:04;7.57;;;5.00;;
5129;SDS011;2583;50.946;6.954;2022-07-11T04:53:34;5.27;;;4.77;;
5129;SDS011;2583;50.946;6.954;2022-07-11T04:56:01;5.03;;;4.63;;
5129;SDS011;2583;50.946;6.954;2022-07-11T04:58:28;5.40;;;4.90;;
5129;SDS011;2583;50.946;6.954;2022-07-11T05:00:58;5.63;;;4.97;;
5129;SDS011;2583;50.946;6.954;2022-07-11T05:03:25;8.33;;;4.60;;
5129;SDS011;2583;50.946;6.954;2022-07-11T05:05:52;5.37;;;4.87;;
5129;SDS011;2583;50.946;6.954;2022-07-11T05:08:19;7.03;;;4.80;;
5129;SDS011;2583;50.946;6.954;2022-07-11T05:10:45;7.67;;;5.83;;
5129;SDS011;2583;50.946;6.954;2022-07-11T05:13:12;6.00;;;5.27;;
5129;SDS011;2583;50.946;6.954;2022-07-11T05:15:39;7.83;;;4.67;;
5129;SDS011;2583;50.946;6.954;2022-07-11T05:18:06;10.27;;;5.60;;
5129;SDS011;2583;50.946;6.954;2022-07-11T05:20:33;9.43;;;5.30;;
5129;SDS011;2583;50.946;6.954;2022-07-11T05:23:00;11.17;;;6.30;;
5129;SDS011;2583;50.946;6.954;2022-07-11T05:25:26;6.20;;;5.47;;
5129;SDS011;2583;50.946;6.954;2022-07-11T05:27:54;6.43;;;4.93;;
5129;SDS011;2583;50.946;6.954;2022-07-11T05:30:21;6.10;;;5.60;;
5129;SDS011;2583;50.946;6.954;2022-07-11T05:32:47;6.40;;;5.87;;
5129;SDS011;2583;50.946;6.954;2022-07-11T05:35:14;6.37;;;5.30;;
5129;SDS011;2583;50.946;6.954;2022-07-11T05:37:41;7.07;;;5.87;;
5129;SDS011;2583;50.946;6.954;2022-07-11T05:40:08;10.67;;;5.60;;
5129;SDS011;2583;50.946;6.954;2022-07-11T05:42:35;7.60;;;6.00;;
5129;SDS011;2583;50.946;6.954;2022-07-11T05:45:02;6.40;;;5.50;;
5129;SDS011;2583;50.946;6.954;2022-07-11T05:47:29;5.93;;;5.37;;
5129;SDS011;2583;50.946;6.954;2022-07-11T05:49:56;6.60;;;6.10;;
5129;SDS011;2583;50.946;6.954;2022-07-11T05:52:23;7.07;;;5.90;;
5129;SDS011;2583;50.946;6.954;2022-07-11T05:54:49;7.10;;;6.40;;
5129;SDS011;2583;50.946;6.954;2022-07-11T05:57:16;7.30;;;5.23;;
5129;SDS011;2583;50.946;6.954;2022-07-11T05:59:43;10.07;;;5.70;;
5129;SDS011;2583;50.946;6.954;2022-07-11T06:02:12;7.67;;;5.73;;
5129;SDS011;2583;50.946;6.954;2022-07-11T06:04:39;5.53;;;5.03;;
5129;SDS011;2583;50.946;6.954;2022-07-11T06:07:06;11.40;;;5.93;;
5129;SDS011;2583;50.946;6.954;2022-07-11T06:09:32;7.10;;;5.77;;
5129;SDS011;2583;50.946;6.954;2022-07-11T06:11:59;5.73;;;5.13;;
5129;SDS011;2583;50.946;6.954;2022-07-11T06:14:26;8.07;;;5.30;;
5129;SDS011;2583;50.946;6.954;2022-07-11T06:16:53;5.83;;;5.30;;
5129;SDS011;2583;50.946;6.954;2022-07-11T06:19:20;8.73;;;5.40;;
5129;SDS011;2583;50.946;6.954;2022-07-11T06:21:47;7.43;;;6.10;;
5129;SDS011;2583;50.946;6.954;2022-07-11T06:24:14;6.43;;;5.97;;
5129;SDS011;2583;50.946;6.954;2022-07-11T06:26:41;6.60;;;5.97;;
5129;SDS011;2583;50.946;6.954;2022-07-11T06:29:07;12.70;;;6.10;;
5129;SDS011;2583;50.946;6.954;2022-07-11T06:31:34;9.73;;;5.97;;
5129;SDS011;2583;50.946;6.954;2022-07-11T06:34:01;7.67;;;5.90;;
5129;SDS011;2583;50.946;6.954;2022-07-11T06:36:28;6.80;;;6.10;;
5129;SDS011;2583;50.946;6.954;2022-07-11T06:38:55;14.40;;;6.00;;
5129;SDS011;2583;50.946;6.954;2022-07-11T06:41:22;5.67;;;5.20;;
5129;SDS011;2583;50.946;6.954;2022-07-11T06:43:48;8.13;;;5.27;;
5129;SDS011;2583;50.946;6.954;2022-07-11T06:46:15;6.43;;;4.83;;
5129;SDS011;2583;50.946;6.954;2022-07-11T06:48:42;6.93;;;5.90;;
5129;SDS011;2583;50.946;6.954;2022-07-11T06:51:09;6.27;;;5.80;;
5129;SDS011;2583;50.946;6.954;2022-07-11T06:53:36;9.00;;;6.07;;
5129;SDS011;2583;50.946;6.954;2022-07-11T06:56:03;7.83;;;6.70;;
5129;SDS011;2583;50.946;6.954;2022-07-11T06:58:30;12.27;;;6.77;;
5129;SDS011;2583;50.946;6.954;2022-07-11T07:00:59;7.03;;;5.90;;
5129;SDS011;2583;50.946;6.954;2022-07-11T07:03:27;7.93;;;7.33;;
5129;SDS011;2583;50.946;6.954;2022-07-11T07:05:55;6.87;;;6.30;;
5129;SDS011;2583;50.946;6.954;2022-07-11T07:08:23;6.77;;;6.27;;
5129;SDS011;2583;50.946;6.954;2022-07-11T07:10:51;6.63;;;6.13;;
5129;SDS011;2583;50.946;6.954;2022-07-11T07:13:18;7.90;;;6.03;;
5129;SDS011;2583;50.946;6.954;2022-07-11T07:15:46;7.10;;;6.37;;
5129;SDS011;2583;50.946;6.954;2022-07-11T07:18:13;5.50;;;5.10;;
5129;SDS011;2583;50.946;6.954;2022-07-11T07:20:40;5.70;;;5.30;;
5129;SDS011;2583;50.946;6.954;2022-07-11T07:23:07;7.07;;;5.30;;
5129;SDS011;2583;50.946;6.954;2022-07-11T07:25:34;6.13;;;5.63;;
5129;SDS011;2583;50.946;6.954;2022-07-11T07:28:01;7.00;;;6.40;;
5129;SDS011;2583;50.946;6.954;2022-07-11T07:30:28;7.47;;;6.87;;
5129;SDS011;2583;50.946;6.954;2022-07-11T07:32:55;6.13;;;5.83;;
5129;SDS011;2583;50.946;6.954;2022-07-11T07:35:22;5.80;;;5.50;;
5129;SDS011;2583;50.946;6.954;2022-07-11T07:37:49;5.80;;;5.30;;
5129;SDS011;2583;50.946;6.954;2022-07-11T07:40:16;6.40;;;5.90;;
5129;SDS011;2583;50.946;6.954;2022-07-11T07:42:42;7.70;;;5.30;;
5129;SDS011;2583;50.946;6.954;2022-07-11T07:45:11;6.73;;;6.13;;
5129;SDS011;2583;50.946;6.954;2022-07-11T07:47:38;6.00;;;5.63;;
5129;SDS011;2583;50.946;6.954;2022-07-11T07:50:05;7.17;;;6.57;;
5129;SDS011;2583;50.946;6.954;2022-07-11T07:52:34;6.57;;;6.07;;
5129;SDS011;2583;50.946;6.954;2022-07-11T07:55:01;11.20;;;6.80;;
5129;SDS011;2583;50.946;6.954;2022-07-11T07:57:28;9.67;;;8.67;;
5129;SDS011;2583;50.946;6.954;2022-07-11T07:59:55;7.57;;;6.87;;
5129;SDS011;2583;50.946;6.954;2022-07-11T08:02:42;8.43;;;7.80;;
5129;SDS011;2583;50.946;6.954;2022-07-11T08:05:09;11.80;;;7.53;;
5129;SDS011;2583;50.946;6.954;2022-07-11T08:07:36;8.30;;;7.70;;
5129;SDS011;2583;50.946;6.954;2022-07-11T08:10:06;11.40;;;10.30;;
5129;SDS011;2583;50.946;6.954;2022-07-11T08:12:33;13.60;;;9.60;;
5129;SDS011;2583;50.946;6.954;2022-07-11T08:15:00;11.20;;;10.43;;
5129;SDS011;2583;50.946;6.954;2022-07-11T08:17:26;12.87;;;11.67;;
5129;SDS011;2583;50.946;6.954;2022-07-11T08:19:53;13.40;;;11.80;;
5129;SDS011;2583;50.946;6.954;2022-07-11T08:22:20;12.87;;;11.77;;
5129;SDS011;2583;50.946;6.954;2022-07-11T08:24:47;12.80;;;11.70;;
5129;SDS011;2583;50.946;6.954;2022-07-11T08:27:14;12.93;;;11.70;;
5129;SDS011;2583;50.946;6.954;2022-07-11T08:30:01;13.23;;;12.13;;
5129;SDS011;2583;50.946;6.954;2022-07-11T08:32:29;13.33;;;11.40;;
5129;SDS011;2583;50.946;6.954;2022-07-11T08:34:56;13.07;;;11.83;;
5129;SDS011;2583;50.946;6.954;2022-07-11T08:37:23;13.37;;;11.70;;
5129;SDS011;2583;50.946;6.954;2022-07-11T08:39:49;13.30;;;12.10;;
5129;SDS011;2583;50.946;6.954;2022-07-11T08:42:19;12.23;;;11.20;;
5129;SDS011;2583;50.946;6.954;2022-07-11T08:44:47;12.93;;;11.03;;
5129;SDS011;2583;50.946;6.954;2022-07-11T08:47:14;12.97;;;11.93;;
5129;SDS011;2583;50.946;6.954;2022-07-11T08:49:41;14.27;;;13.07;;
5129;SDS011;2583;50.946;6.954;2022-07-11T08:52:11;11.83;;;10.90;;
5129;SDS011;2583;50.946;6.954;2022-07-11T08:54:41;13.43;;;12.17;;
5129;SDS011;2583;50.946;6.954;2022-07-11T08:57:08;12.97;;;11.93;;
5129;SDS011;2583;50.946;6.954;2022-07-11T08:59:36;14.90;;;13.40;;
5129;SDS011;2583;50.946;6.954;2022-07-11T09:02:07;18.27;;;16.37;;
5129;SDS011;2583;50.946;6.954;2022-07-11T09:04:35;19.60;;;17.70;;
5129;SDS011;2583;50.946;6.954;2022-07-11T09:07:02;17.77;;;16.37;;
5129;SDS011;2583;50.946;6.954;2022-07-11T09:09:30;18.67;;;16.80;;
5129;SDS011;2583;50.946;6.954;2022-07-11T09:11:57;17.43;;;16.07;;
5129;SDS011;2583;50.946;6.954;2022-07-11T09:14:28;16.50;;;15.27;;
5129;SDS011;2583;50.946;6.954;2022-07-11T09:19:28;19.03;;;17.33;;
5129;SDS011;2583;50.946;6.954;2022-07-11T09:22:04;14.90;;;13.70;;
5129;SDS011;2583;50.946;6.954;2022-07-11T09:25:02;15.80;;;14.57;;
5129;SDS011;2583;50.946;6.954;2022-07-11T09:27:47;14.60;;;13.50;;
5129;SDS011;2583;50.946;6.954;2022-07-11T09:30:37;12.43;;;11.43;;
5129;SDS011;2583;50.946;6.954;2022-07-11T09:33:10;13.90;;;13.03;;
5129;SDS011;2583;50.946;6.954;2022-07-11T09:35:43;14.30;;;13.27;;
5129;SDS011;2583;50.946;6.954;2022-07-11T09:38:12;14.73;;;13.90;;
5129;SDS011;2583;50.946;6.954;2022-07-11T09:40:43;19.00;;;17.70;;
5129;SDS011;2583;50.946;6.954;2022-07-11T09:43:11;18.33;;;17.00;;
5129;SDS011;2583;50.946;6.954;2022-07-11T09:45:38;18.50;;;17.30;;
5129;SDS011;2583;50.946;6.954;2022-07-11T09:48:07;19.77;;;17.67;;
5129;SDS011;2583;50.946;6.954;2022-07-11T09:50:35;20.33;;;18.70;;
5129;SDS011;2583;50.946;6.954;2022-07-11T09:53:06;22.90;;;20.80;;
5129;SDS011;2583;50.946;6.954;2022-07-11T09:55:37;20.27;;;18.87;;
5129;SDS011;2583;50.946;6.954;2022-07-11T09:58:17;21.50;;;19.90;;
5129;SDS011;2583;50.946;6.954;2022-07-11T10:00:44;20.43;;;19.03;;
5129;SDS011;2583;50.946;6.954;2022-07-11T10:03:12;19.67;;;18.17;;
5129;SDS011;2583;50.946;6.954;2022-07-11T10:05:59;20.10;;;18.63;;
5129;SDS011;2583;50.946;6.954;2022-07-11T10:08:26;19.23;;;17.63;;
5129;SDS011;2583;50.946;6.954;2022-07-11T10:10:53;16.93;;;15.50;;
5129;SDS011;2583;50.946;6.954;2022-07-11T10:13:20;15.70;;;14.70;;
5129;SDS011;2583;50.946;6.954;2022-07-11T10:15:47;14.20;;;13.27;;
5129;SDS011;2583;50.946;6.954;2022-07-11T10:18:30;15.70;;;14.50;;
5129;SDS011;2583;50.946;6.954;2022-07-11T10:21:09;15.77;;;14.67;;
5129;SDS011;2583;50.946;6.954;2022-07-11T10:24:01;15.50;;;14.50;;
5129;SDS011;2583;50.946;6.954;2022-07-11T10:29:56;15.10;;;13.73;;
5129;SDS011;2583;50.946;6.954;2022-07-11T10:32:23;14.63;;;13.63;;
5129;SDS011;2583;50.946;6.954;2022-07-11T10:37:46;15.40;;;14.30;;
5129;SDS011;2583;50.946;6.954;2022-07-11T10:40:17;20.13;;;17.03;;
5129;SDS011;2583;50.946;6.954;2022-07-11T10:43:13;15.53;;;14.53;;
5129;SDS011;2583;50.946;6.954;2022-07-11T10:48:28;14.33;;;13.50;;
5129;SDS011;2583;50.946;6.954;2022-07-11T10:53:45;15.60;;;14.60;;
5129;SDS011;2583;50.946;6.954;2022-07-11T10:56:40;15.43;;;14.23;;
5129;SDS011;2583;50.946;6.954;2022-07-11T10:59:21;15.57;;;14.60;;
5129;SDS011;2583;50.946;6.954;2022-07-11T11:02:02;15.80;;;14.60;;
5129;SDS011;2583;50.946;6.954;2022-07-11T11:07:27;18.67;;;17.20;;
5129;SDS011;2583;50.946;6.954;2022-07-11T11:09:56;16.80;;;15.50;;
5129;SDS011;2583;50.946;6.954;2022-07-11T11:13:09;16.83;;;15.53;;
5129;SDS011;2583;50.946;6.954;2022-07-11T11:23:31;19.20;;;17.93;;
5129;SDS011;2583;50.946;6.954;2022-07-11T11:26:15;18.83;;;17.63;;
5129;SDS011;2583;50.946;6.954;2022-07-11T11:31:27;18.47;;;17.10;;
5129;SDS011;2583;50.946;6.954;2022-07-11T11:33:58;19.10;;;17.80;;
5129;SDS011;2583;50.946;6.954;2022-07-11T11:36:27;19.00;;;17.60;;
5129;SDS011;2583;50.946;6.954;2022-07-11T11:38:54;18.43;;;17.00;;
5129;SDS011;2583;50.946;6.954;2022-07-11T11:41:22;18.00;;;16.73;;
5129;SDS011;2583;50.946;6.954;2022-07-11T11:43:54;18.83;;;17.40;;
5129;SDS011;2583;50.946;6.954;2022-07-11T11:46:25;17.90;;;16.00;;
5129;SDS011;2583;50.946;6.954;2022-07-11T11:49:00;14.83;;;13.80;;
5129;SDS011;2583;50.946;6.954;2022-07-11T11:51:30;13.97;;;12.97;;
5129;SDS011;2583;50.946;6.954;2022-07-11T11:54:01;15.03;;;13.90;;
5129;SDS011;2583;50.946;6.954;2022-07-11T11:56:30;13.83;;;12.93;;
5129;SDS011;2583;50.946;6.954;2022-07-11T11:59:06;13.93;;;13.00;;
5129;SDS011;2583;50.946;6.954;2022-07-11T12:01:43;14.77;;;13.67;;
5129;SDS011;2583;50.946;6.954;2022-07-11T12:04:12;22.77;;;13.23;;
5129;SDS011;2583;50.946;6.954;2022-07-11T12:06:44;13.43;;;12.53;;
5129;SDS011;2583;50.946;6.954;2022-07-11T12:09:13;13.23;;;12.30;;
5129;SDS011;2583;50.946;6.954;2022-07-11T12:11:43;14.20;;;13.17;;
5129;SDS011;2583;50.946;6.954;2022-07-11T12:14:12;14.20;;;12.93;;
5129;SDS011;2583;50.946;6.954;2022-07-11T12:16:41;14.27;;;13.47;;
5129;SDS011;2583;50.946;6.954;2022-07-11T12:19:20;13.70;;;12.60;;
5129;SDS011;2583;50.946;6.954;2022-07-11T12:21:50;15.23;;;14.00;;
5129;SDS011;2583;50.946;6.954;2022-07-11T12:24:26;14.30;;;13.10;;
5129;SDS011;2583;50.946;6.954;2022-07-11T12:26:53;14.23;;;13.17;;
5129;SDS011;2583;50.946;6.954;2022-07-11T12:29:21;13.50;;;12.70;;
5129;SDS011;2583;50.946;6.954;2022-07-11T12:31:54;13.30;;;12.50;;
5129;SDS011;2583;50.946;6.954;2022-07-11T12:34:22;13.73;;;12.63;;
5129;SDS011;2583;50.946;6.954;2022-07-11T12:39:36;13.23;;;12.20;;
5129;SDS011;2583;50.946;6.954;2022-07-11T12:42:27;12.90;;;11.90;;
5129;SDS011;2583;50.946;6.954;2022-07-11T12:47:26;12.80;;;11.90;;
5129;SDS011;2583;50.946;6.954;2022-07-11T12:49:55;13.13;;;12.00;;
5129;SDS011;2583;50.946;6.954;2022-07-11T12:52:22;12.43;;;11.63;;
5129;SDS011;2583;50.946;6.954;2022-07-11T12:54:49;12.30;;;11.50;;
5129;SDS011;2583;50.946;6.954;2022-07-11T12:57:27;12.40;;;11.50;;
5129;SDS011;2583;50.946;6.954;2022-07-11T12:59:54;10.30;;;9.70;;
5129;SDS011;2583;50.946;6.954;2022-07-11T13:02:21;11.50;;;10.80;;
5129;SDS011;2583;50.946;6.954;2022-07-11T13:04:53;12.13;;;11.43;;
5129;SDS011;2583;50.946;6.954;2022-07-11T13:10:09;14.50;;;13.23;;
5129;SDS011;2583;50.946;6.954;2022-07-11T13:12:37;12.70;;;12.00;;
5129;SDS011;2583;50.946;6.954;2022-07-11T13:15:05;12.73;;;11.73;;
5129;SDS011;2583;50.946;6.954;2022-07-11T13:17:40;13.10;;;12.00;;
5129;SDS011;2583;50.946;6.954;2022-07-11T13:20:09;12.17;;;11.00;;
5129;SDS011;2583;50.946;6.954;2022-07-11T13:22:40;13.87;;;12.53;;
5129;SDS011;2583;50.946;6.954;2022-07-11T13:25:11;11.20;;;10.60;;
5129;SDS011;2583;50.946;6.954;2022-07-11T13:27:40;12.33;;;11.63;;
5129;SDS011;2583;50.946;6.954;2022-07-11T13:30:09;14.10;;;13.10;;
5129;SDS011;2583;50.946;6.954;2022-07-11T13:32:41;15.10;;;14.10;;
5129;SDS011;2583;50.946;6.954;2022-07-11T13:35:09;13.77;;;12.77;;
5129;SDS011;2583;50.946;6.954;2022-07-11T13:37:42;15.17;;;14.10;;
5129;SDS011;2583;50.946;6.954;2022-07-11T13:40:10;13.77;;;12.77;;
5129;SDS011;2583;50.946;6.954;2022-07-11T13:42:42;14.20;;;13.23;;
5129;SDS011;2583;50.946;6.954;2022-07-11T13:45:12;15.37;;;14.10;;
5129;SDS011;2583;50.946;6.954;2022-07-11T13:47:39;14.17;;;13.00;;
5129;SDS011;2583;50.946;6.954;2022-07-11T13:50:06;13.43;;;12.53;;
5129;SDS011;2583;50.946;6.954;2022-07-11T13:52:33;13.10;;;12.20;;
5129;SDS011;2583;50.946;6.954;2022-07-11T13:55:01;24.50;;;15.73;;
5129;SDS011;2583;50.946;6.954;2022-07-11T13:57:29;12.67;;;11.87;;
5129;SDS011;2583;50.946;6.954;2022-07-11T13:59:56;11.33;;;10.63;;
5129;SDS011;2583;50.946;6.954;2022-07-11T14:02:23;13.63;;;12.43;;
5129;SDS011;2583;50.946;6.954;2022-07-11T14:04:56;11.67;;;10.77;;
5129;SDS011;2583;50.946;6.954;2022-07-11T14:07:24;10.10;;;9.50;;
5129;SDS011;2583;50.946;6.954;2022-07-11T14:09:51;9.87;;;8.90;;
5129;SDS011;2583;50.946;6.954;2022-07-11T14:12:20;9.17;;;8.53;;
5129;SDS011;2583;50.946;6.954;2022-07-11T14:14:47;9.07;;;8.40;;
5129;SDS011;2583;50.946;6.954;2022-07-11T14:17:14;9.03;;;8.53;;
5129;SDS011;2583;50.946;6.954;2022-07-11T14:19:41;9.03;;;8.43;;
5129;SDS011;2583;50.946;6.954;2022-07-11T14:22:07;9.03;;;8.53;;
5129;SDS011;2583;50.946;6.954;2022-07-11T14:24:34;10.30;;;9.00;;
5129;SDS011;2583;50.946;6.954;2022-07-11T14:27:02;9.37;;;8.80;;
5129;SDS011;2583;50.946;6.954;2022-07-11T14:29:29;9.40;;;8.90;;
5129;SDS011;2583;50.946;6.954;2022-07-11T14:31:57;9.20;;;8.30;;
5129;SDS011;2583;50.946;6.954;2022-07-11T14:34:25;8.70;;;8.13;;
5129;SDS011;2583;50.946;6.954;2022-07-11T14:36:52;9.10;;;8.53;;
5129;SDS011;2583;50.946;6.954;2022-07-11T14:39:19;9.53;;;9.03;;
5129;SDS011;2583;50.946;6.954;2022-07-11T14:41:46;13.93;;;12.80;;
5129;SDS011;2583;50.946;6.954;2022-07-11T14:44:13;8.30;;;7.80;;
5129;SDS011;2583;50.946;6.954;2022-07-11T14:46:40;8.70;;;8.10;;
5129;SDS011;2583;50.946;6.954;2022-07-11T14:49:13;8.80;;;8.13;;
5129;SDS011;2583;50.946;6.954;2022-07-11T14:51:40;8.30;;;7.73;;
5129;SDS011;2583;50.946;6.954;2022-07-11T14:54:23;8.50;;;8.00;;
5129;SDS011;2583;50.946;6.954;2022-07-11T14:56:51;8.40;;;7.90;;
5129;SDS011;2583;50.946;6.954;2022-07-11T14:59:17;8.40;;;7.90;;
5129;SDS011;2583;50.946;6.954;2022-07-11T15:01:44;8.03;;;7.60;;
5129;SDS011;2583;50.946;6.954;2022-07-11T15:04:11;8.10;;;7.57;;
5129;SDS011;2583;50.946;6.954;2022-07-11T15:06:38;10.83;;;9.70;;
5129;SDS011;2583;50.946;6.954;2022-07-11T15:09:23;10.10;;;9.23;;
5129;SDS011;2583;50.946;6.954;2022-07-11T15:12:09;9.23;;;8.57;;
5129;SDS011;2583;50.946;6.954;2022-07-11T15:14:47;11.10;;;10.00;;
5129;SDS011;2583;50.946;6.954;2022-07-11T15:17:14;10.07;;;9.57;;
5129;SDS011;2583;50.946;6.954;2022-07-11T15:19:41;11.00;;;10.30;;
5129;SDS011;2583;50.946;6.954;2022-07-11T15:22:08;9.80;;;9.20;;
5129;SDS011;2583;50.946;6.954;2022-07-11T15:24:35;10.23;;;9.63;;
5129;SDS011;2583;50.946;6.954;2022-07-11T15:27:02;9.33;;;8.83;;
5129;SDS011;2583;50.946;6.954;2022-07-11T15:29:29;10.50;;;9.80;;
5129;SDS011;2583;50.946;6.954;2022-07-11T15:31:57;9.90;;;9.40;;
5129;SDS011;2583;50.946;6.954;2022-07-11T15:34:25;22.20;;;19.73;;
5129;SDS011;2583;50.946;6.954;2022-07-11T15:36:52;10.30;;;9.80;;
5129;SDS011;2583;50.946;6.954;2022-07-11T15:39:18;10.90;;;10.40;;
5129;SDS011;2583;50.946;6.954;2022-07-11T15:41:45;12.37;;;11.47;;
5129;SDS011;2583;50.946;6.954;2022-07-11T15:44:12;12.27;;;11.57;;
5129;SDS011;2583;50.946;6.954;2022-07-11T15:46:39;13.00;;;11.90;;
5129;SDS011;2583;50.946;6.954;2022-07-11T15:49:06;10.57;;;10.07;;
5129;SDS011;2583;50.946;6.954;2022-07-11T15:51:33;11.40;;;10.63;;